createdAt,value
2018-11-29T00:00:06.708Z,3.98
2018-11-29T00:01:16.799Z,3.97
2018-11-29T00:02:26.143Z,3.94
2018-11-29T00:03:35.446Z,3.94
2018-11-29T00:04:45.012Z,3.97
2018-11-29T00:05:54.581Z,4.02
2018-11-29T00:07:04.418Z,4.09
2018-11-29T00:08:13.726Z,3.94
2018-11-29T00:09:23.551Z,4.11
2018-11-29T00:10:33.375Z,4.04
2018-11-29T00:11:43.257Z,4.09
2018-11-29T00:12:52.831Z,4.09
2018-11-29T00:14:02.402Z,4.09
2018-11-29T00:15:11.706Z,4.06
2018-11-29T00:16:21.289Z,4.08
2018-11-29T00:17:31.377Z,4.06
2018-11-29T00:18:41.209Z,4.09
2018-11-29T00:19:51.038Z,4.05
2018-11-29T00:21:00.607Z,4.06
2018-11-29T00:22:10.451Z,4.14
2018-11-29T00:23:20.329Z,4.12
2018-11-29T00:24:30.163Z,4.22
2018-11-29T00:25:39.999Z,4.23
2018-11-29T00:26:49.303Z,4.2
2018-11-29T00:27:59.130Z,4.18
2018-11-29T00:29:08.716Z,4.11
2018-11-29T00:30:18.574Z,4.24
2018-11-29T00:31:28.403Z,4.24
2018-11-29T00:32:38.237Z,4.23
2018-11-29T00:33:47.554Z,4.26
2018-11-29T00:34:57.652Z,4.24
2018-11-29T00:36:07.230Z,4.23
2018-11-29T00:37:17.058Z,4.29
2018-11-29T00:38:26.635Z,4.3
2018-11-29T00:39:36.460Z,4.26
2018-11-29T00:40:46.556Z,4.26
2018-11-29T00:41:56.128Z,4.27
2018-11-29T00:43:05.693Z,4.26
2018-11-29T00:44:15.313Z,4.24
2018-11-29T00:45:25.142Z,4.41
2018-11-29T00:46:34.763Z,4.34
2018-11-29T00:47:44.596Z,4.48
2018-11-29T00:48:53.907Z,4.42
2018-11-29T00:50:03.738Z,4.47
2018-11-29T00:51:13.828Z,4.47
2018-11-29T00:52:23.706Z,4.34
2018-11-29T00:53:33.543Z,4.47
2018-11-29T00:54:43.626Z,4.4
2018-11-29T00:55:53.201Z,4.47
2018-11-29T00:57:03.035Z,4.44
2018-11-29T00:58:12.861Z,4.41
2018-11-29T00:59:22.690Z,4.4
2018-11-29T01:00:32.258Z,4.48
2018-11-29T01:01:42.340Z,4.41
2018-11-29T01:02:52.189Z,4.44
2018-11-29T01:04:01.505Z,4.42
2018-11-29T01:05:11.988Z,4.47
2018-11-29T01:06:21.568Z,4.41
2018-11-29T01:07:31.395Z,4.44
2018-11-29T01:08:41.494Z,4.5
2018-11-29T01:09:51.585Z,4.47
2018-11-29T01:11:01.159Z,4.44
2018-11-29T01:12:10.988Z,4.45
2018-11-29T01:13:20.558Z,4.45
2018-11-29T01:14:30.387Z,4.42
2018-11-29T01:15:39.958Z,4.52
2018-11-29T01:16:49.264Z,4.54
2018-11-29T01:17:58.833Z,4.54
2018-11-29T01:19:08.662Z,4.55
2018-11-29T01:20:18.527Z,4.54
2018-11-29T01:21:28.359Z,4.55
2018-11-29T01:22:38.458Z,4.47
2018-11-29T01:23:48.026Z,4.5
2018-11-29T01:24:57.593Z,4.52
2018-11-29T01:26:07.426Z,4.54
2018-11-29T01:27:17.304Z,4.51
2018-11-29T01:28:26.612Z,4.54
2018-11-29T01:29:36.445Z,4.5
2018-11-29T01:30:46.031Z,4.42
2018-11-29T01:31:55.598Z,4.58
2018-11-29T01:33:05.428Z,4.55
2018-11-29T01:34:15.001Z,4.6
2018-11-29T01:35:24.827Z,4.63
2018-11-29T01:36:34.660Z,4.62
2018-11-29T01:37:44.754Z,4.48
2018-11-29T01:38:54.576Z,4.66
2018-11-29T01:40:04.410Z,4.67
2018-11-29T01:41:13.979Z,4.72
2018-11-29T01:42:23.813Z,4.7
2018-11-29T01:43:33.907Z,4.62
2018-11-29T01:44:44.051Z,4.6
2018-11-29T01:45:53.355Z,4.65
2018-11-29T01:47:03.221Z,4.67
2018-11-29T01:48:12.788Z,4.69
2018-11-29T01:49:22.362Z,4.65
2018-11-29T01:50:31.671Z,4.67
2018-11-29T01:51:41.766Z,4.73
2018-11-29T01:52:51.855Z,4.77
2018-11-29T01:54:01.951Z,4.75
2018-11-29T01:55:12.053Z,4.73
2018-11-29T01:56:22.203Z,4.72
2018-11-29T01:57:32.033Z,4.75
2018-11-29T01:58:41.862Z,4.78
2018-11-29T01:59:51.172Z,4.72
2018-11-29T02:01:01.264Z,4.7
2018-11-29T02:02:10.832Z,4.77
2018-11-29T02:03:20.672Z,4.75
2018-11-29T02:04:30.502Z,4.8
2018-11-29T02:05:40.336Z,4.72
2018-11-29T02:06:49.646Z,4.75
2018-11-29T02:07:59.482Z,4.78
2018-11-29T02:09:09.063Z,4.73
2018-11-29T02:10:18.895Z,4.8
2018-11-29T02:11:28.211Z,4.8
2018-11-29T02:12:38.047Z,4.82
2018-11-29T02:13:48.139Z,4.77
2018-11-29T02:14:58.231Z,4.84
2018-11-29T02:16:08.064Z,4.73
2018-11-29T02:17:17.371Z,4.84
2018-11-29T02:18:26.984Z,4.84
2018-11-29T02:19:36.860Z,4.82
2018-11-29T02:20:46.693Z,4.92
2018-11-29T02:21:56.264Z,4.92
2018-11-29T02:23:06.095Z,4.91
2018-11-29T02:24:16.186Z,4.88
2018-11-29T02:25:26.275Z,4.85
2018-11-29T02:26:36.104Z,4.97
2018-11-29T02:27:45.941Z,4.97
2018-11-29T02:28:55.516Z,4.96
2018-11-29T02:30:05.106Z,4.97
2018-11-29T02:31:15.211Z,4.96
2018-11-29T02:32:25.050Z,4.97
2018-11-29T02:33:35.148Z,4.91
2018-11-29T02:34:44.982Z,4.89
2018-11-29T02:35:54.832Z,4.92
2018-11-29T02:37:04.147Z,4.99
2018-11-29T02:38:13.729Z,5
2018-11-29T02:39:23.828Z,5
2018-11-29T02:40:33.655Z,4.94
2018-11-29T02:41:43.768Z,4.96
2018-11-29T02:42:53.090Z,5
2018-11-29T02:44:02.924Z,4.99
2018-11-29T02:45:13.018Z,4.96
2018-11-29T02:46:23.125Z,5
2018-11-29T02:47:33.228Z,4.99
2018-11-29T02:48:43.325Z,5.02
2018-11-29T02:49:53.445Z,4.99
2018-11-29T02:51:03.319Z,4.99
2018-11-29T02:52:13.158Z,5
2018-11-29T02:53:22.989Z,5.02
2018-11-29T02:54:32.834Z,5.02
2018-11-29T02:55:42.929Z,4.99
2018-11-29T02:56:53.054Z,5
2018-11-29T02:58:02.919Z,4.97
2018-11-29T02:59:12.753Z,4.96
2018-11-29T03:00:22.850Z,5
2018-11-29T03:01:32.689Z,5.02
2018-11-29T03:02:42.519Z,4.97
2018-11-29T03:03:52.356Z,4.99
2018-11-29T03:05:01.683Z,4.99
2018-11-29T03:06:11.576Z,5.09
2018-11-29T03:07:21.407Z,5
2018-11-29T03:08:31.237Z,5.02
2018-11-29T03:09:41.337Z,4.97
2018-11-29T03:10:51.439Z,5
2018-11-29T03:12:01.276Z,5.03
2018-11-29T03:13:10.589Z,5.06
2018-11-29T03:14:20.695Z,5.02
2018-11-29T03:15:30.844Z,4.96
2018-11-29T03:16:40.680Z,4.96
2018-11-29T03:17:50.309Z,5.06
2018-11-29T03:19:00.432Z,4.97
2018-11-29T03:20:10.307Z,5.06
2018-11-29T03:21:19.654Z,5.09
2018-11-29T03:22:29.488Z,5.06
2018-11-29T03:23:39.336Z,5.12
2018-11-29T03:24:49.434Z,5.06
2018-11-29T03:25:59.270Z,5.04
2018-11-29T03:27:09.108Z,5.09
2018-11-29T03:28:18.708Z,5.09
2018-11-29T03:29:28.542Z,5.09
2018-11-29T03:30:38.403Z,5.13
2018-11-29T03:31:48.574Z,5
2018-11-29T03:32:58.717Z,5.07
2018-11-29T03:34:08.299Z,5.13
2018-11-29T03:35:18.142Z,5.06
2018-11-29T03:36:28.239Z,5.12
2018-11-29T03:37:38.081Z,5.12
2018-11-29T03:38:47.671Z,5.1
2018-11-29T03:39:56.736Z,5.12
2018-11-29T03:41:06.877Z,5.1
2018-11-29T03:42:16.485Z,5.15
2018-11-29T03:43:26.580Z,5.2
2018-11-29T03:44:36.682Z,5.15
2018-11-29T03:45:46.776Z,5.04
2018-11-29T03:46:56.613Z,5.13
2018-11-29T03:48:06.199Z,5.13
2018-11-29T03:49:16.302Z,5.13
2018-11-29T03:50:26.411Z,5.13
2018-11-29T03:51:36.796Z,5.07
2018-11-29T03:52:46.687Z,5.1
2018-11-29T03:53:56.804Z,5.04
2018-11-29T03:55:06.634Z,5.03
2018-11-29T03:56:16.792Z,5.03
2018-11-29T03:57:26.640Z,5.07
2018-11-29T03:58:36.213Z,5.13
2018-11-29T03:59:45.533Z,5.04
2018-11-29T04:00:55.639Z,5.06
2018-11-29T04:02:05.220Z,5
2018-11-29T04:03:15.058Z,5.1
2018-11-29T04:04:24.894Z,5.1
2018-11-29T04:05:35.316Z,5.02
2018-11-29T04:06:45.482Z,5.15
2018-11-29T04:07:55.319Z,5.17
2018-11-29T04:09:05.159Z,5.06
2018-11-29T04:10:15.308Z,5.12
2018-11-29T04:11:25.141Z,5.18
2018-11-29T04:12:34.972Z,5.06
2018-11-29T04:13:45.073Z,5.17
2018-11-29T04:14:54.901Z,5.09
2018-11-29T04:16:04.998Z,5.13
2018-11-29T04:17:14.310Z,5.09
2018-11-29T04:18:24.415Z,5.12
2018-11-29T04:19:34.526Z,5.15
2018-11-29T04:20:43.843Z,5.07
2018-11-29T04:21:53.939Z,5.1
2018-11-29T04:23:04.125Z,5.07
2018-11-29T04:24:13.698Z,5.09
2018-11-29T04:25:23.017Z,5.02
2018-11-29T04:26:33.118Z,5.04
2018-11-29T04:27:42.955Z,5.04
2018-11-29T04:28:52.803Z,5.04
2018-11-29T04:30:02.642Z,5.13
2018-11-29T04:31:12.746Z,5.15
2018-11-29T04:32:22.591Z,5.18
2018-11-29T04:33:32.695Z,5.15
2018-11-29T04:34:42.808Z,5.13
2018-11-29T04:35:52.388Z,5.13
2018-11-29T04:37:01.969Z,5.13
2018-11-29T04:38:11.815Z,5.24
2018-11-29T04:39:21.653Z,5.24
2018-11-29T04:40:31.750Z,5.24
2018-11-29T04:41:41.846Z,5.28
2018-11-29T04:42:51.674Z,5.28
2018-11-29T04:44:02.479Z,5.33
2018-11-29T04:45:12.575Z,5.38
2018-11-29T04:46:22.426Z,5.4
2018-11-29T04:47:32.263Z,5.42
2018-11-29T04:48:41.832Z,5.48
2018-11-29T04:49:51.665Z,5.46
2018-11-29T04:51:01.512Z,5.57
2018-11-29T04:52:11.612Z,5.63
2018-11-29T04:53:21.196Z,5.61
2018-11-29T04:54:31.080Z,5.67
2018-11-29T04:55:41.201Z,5.65
2018-11-29T04:56:51.308Z,5.65
2018-11-29T04:58:01.451Z,5.63
2018-11-29T04:59:11.298Z,5.64
2018-11-29T05:00:21.403Z,5.61
2018-11-29T05:01:31.233Z,5.68
2018-11-29T05:02:41.068Z,5.72
2018-11-29T05:03:51.203Z,5.68
2018-11-29T05:05:01.046Z,5.71
2018-11-29T05:06:10.357Z,5.72
2018-11-29T05:07:19.936Z,5.78
2018-11-29T05:08:29.779Z,5.81
2018-11-29T05:09:39.623Z,5.67
2018-11-29T05:10:49.458Z,5.72
2018-11-29T05:11:59.028Z,5.74
2018-11-29T05:13:08.349Z,5.79
2018-11-29T05:14:18.184Z,5.72
2018-11-29T05:15:27.763Z,5.91
2018-11-29T05:16:37.601Z,5.83
2018-11-29T05:17:46.911Z,5.83
2018-11-29T05:18:56.755Z,5.89
2018-11-29T05:20:06.906Z,5.89
2018-11-29T05:21:17.005Z,5.82
2018-11-29T05:22:26.851Z,5.94
2018-11-29T05:23:36.692Z,5.86
2018-11-29T05:24:46.528Z,5.93
2018-11-29T05:25:56.415Z,5.97
2018-11-29T05:27:05.987Z,6.03
2018-11-29T05:28:15.821Z,5.97
2018-11-29T05:29:25.927Z,5.9
2018-11-29T05:30:35.762Z,5.93
2018-11-29T05:31:45.857Z,5.93
2018-11-29T05:32:55.953Z,5.97
2018-11-29T05:34:06.047Z,5.99
2018-11-29T05:35:15.622Z,5.99
2018-11-29T05:36:25.734Z,5.91
2018-11-29T05:37:35.827Z,6.04
2018-11-29T05:38:45.428Z,5.99
2018-11-29T05:39:55.521Z,6.11
2018-11-29T05:41:05.616Z,6.01
2018-11-29T05:42:15.191Z,6.04
2018-11-29T05:43:25.034Z,6.12
2018-11-29T05:44:34.864Z,6.04
2018-11-29T05:45:44.445Z,6.06
2018-11-29T05:46:54.578Z,6.03
2018-11-29T05:48:04.417Z,6.08
2018-11-29T05:49:14.567Z,6.12
2018-11-29T05:50:24.144Z,6.08
2018-11-29T05:51:33.973Z,6.15
2018-11-29T05:52:44.471Z,6.14
2018-11-29T05:53:54.304Z,6.14
2018-11-29T05:55:04.144Z,6.03
2018-11-29T05:56:14.242Z,6.08
2018-11-29T05:57:24.341Z,6.12
2018-11-29T05:58:34.182Z,6.09
2018-11-29T05:59:43.754Z,6.14
2018-11-29T06:00:53.629Z,6.21
2018-11-29T06:02:03.202Z,6.11
2018-11-29T06:03:12.775Z,6.17
2018-11-29T06:04:22.611Z,6.28
2018-11-29T06:05:32.184Z,6.28
2018-11-29T06:06:42.326Z,6.15
2018-11-29T06:07:51.899Z,6.19
2018-11-29T06:09:01.725Z,6.21
2018-11-29T06:10:11.562Z,6.27
2018-11-29T06:11:21.136Z,6.27
2018-11-29T06:12:30.757Z,6.22
2018-11-29T06:13:41.115Z,6.17
2018-11-29T06:14:49.900Z,6.18
2018-11-29T06:16:00.001Z,6.19
2018-11-29T06:17:09.574Z,6.21
2018-11-29T06:18:19.462Z,6.18
2018-11-29T06:19:28.770Z,6.22
2018-11-29T06:20:38.598Z,6.25
2018-11-29T06:21:48.426Z,6.27
2018-11-29T06:22:58.258Z,6.28
2018-11-29T06:24:07.837Z,6.22
2018-11-29T06:25:21.103Z,6.18
2018-11-29T06:26:30.953Z,6.27
2018-11-29T06:27:40.524Z,6.19
2018-11-29T06:28:49.832Z,6.27
2018-11-29T06:29:59.665Z,6.17
2018-11-29T06:31:09.505Z,6.18
2018-11-29T06:32:19.082Z,6.3
2018-11-29T06:33:29.170Z,6.19
2018-11-29T06:34:39.271Z,6.12
2018-11-29T06:35:49.103Z,6.25
2018-11-29T06:36:58.937Z,6.08
2018-11-29T06:38:08.773Z,6.21
2018-11-29T06:39:18.599Z,6.27
2018-11-29T06:40:28.428Z,6.31
2018-11-29T06:41:37.994Z,6.19
2018-11-29T06:42:47.569Z,6.22
2018-11-29T06:43:57.660Z,6.31
2018-11-29T06:45:07.755Z,6.34
2018-11-29T06:46:17.587Z,6.28
2018-11-29T06:47:27.170Z,6.33
2018-11-29T06:48:36.745Z,6.27
2018-11-29T06:49:46.063Z,6.3
2018-11-29T06:50:56.159Z,6.34
2018-11-29T06:52:05.995Z,6.33
2018-11-29T06:53:15.823Z,6.27
2018-11-29T06:54:25.663Z,6.28
2018-11-29T06:55:35.231Z,6.31
2018-11-29T06:56:45.066Z,6.21
2018-11-29T06:57:55.161Z,6.21
2018-11-29T06:59:04.994Z,6.21
2018-11-29T07:00:14.826Z,6.21
2018-11-29T07:01:24.656Z,6.21
2018-11-29T07:02:34.490Z,6.21
2018-11-29T07:03:44.323Z,6.28
2018-11-29T07:04:54.441Z,6.36
2018-11-29T07:06:04.336Z,6.28
2018-11-29T07:07:14.161Z,6.27
2018-11-29T07:08:24.267Z,6.28
2018-11-29T07:09:34.364Z,6.3
2018-11-29T07:10:44.462Z,6.31
2018-11-29T07:11:54.035Z,6.28
2018-11-29T07:13:03.605Z,6.28
2018-11-29T07:14:13.183Z,6.33
2018-11-29T07:15:23.022Z,6.38
2018-11-29T07:16:33.122Z,6.3
2018-11-29T07:17:42.957Z,6.3
2018-11-29T07:18:52.801Z,6.31
2018-11-29T07:20:02.892Z,6.41
2018-11-29T07:21:12.726Z,6.36
2018-11-29T07:22:22.558Z,6.4
2018-11-29T07:23:32.388Z,6.43
2018-11-29T07:24:41.957Z,6.37
2018-11-29T07:25:52.049Z,6.33
2018-11-29T07:27:01.368Z,6.31
2018-11-29T07:28:11.255Z,6.44
2018-11-29T07:29:21.988Z,6.38
2018-11-29T07:30:31.833Z,6.36
2018-11-29T07:31:41.195Z,6.37
2018-11-29T07:32:50.523Z,6.44
2018-11-29T07:34:00.205Z,6.34
2018-11-29T07:35:10.052Z,6.43
2018-11-29T07:36:19.621Z,6.3
2018-11-29T07:37:29.720Z,6.31
2018-11-29T07:38:39.561Z,6.3
2018-11-29T07:39:49.449Z,6.22
2018-11-29T07:40:59.295Z,6.3
2018-11-29T07:42:09.388Z,6.33
2018-11-29T07:43:19.227Z,6.33
2018-11-29T07:44:29.376Z,6.37
2018-11-29T07:45:39.260Z,6.22
2018-11-29T07:46:48.826Z,6.31
2018-11-29T07:47:58.918Z,6.3
2018-11-29T07:49:08.746Z,6.22
2018-11-29T07:50:18.585Z,6.33
2018-11-29T07:51:28.412Z,6.36
2018-11-29T07:52:37.985Z,6.22
2018-11-29T07:53:47.614Z,6.25
2018-11-29T07:54:57.455Z,6.33
2018-11-29T07:56:07.289Z,6.3
2018-11-29T07:57:17.175Z,6.4
2018-11-29T07:58:26.746Z,6.28
2018-11-29T07:59:36.346Z,6.27
2018-11-29T08:00:46.442Z,6.28
2018-11-29T08:01:56.543Z,6.25
2018-11-29T08:03:06.635Z,6.28
2018-11-29T08:04:16.744Z,6.3
2018-11-29T08:05:26.327Z,6.25
2018-11-29T08:06:36.471Z,6.36
2018-11-29T08:07:50.145Z,6.27
2018-11-29T08:08:59.722Z,6.25
2018-11-29T08:10:09.039Z,6.31
2018-11-29T08:11:19.145Z,6.4
2018-11-29T08:12:29.239Z,6.41
2018-11-29T08:13:39.328Z,6.38
2018-11-29T08:14:49.428Z,6.43
2018-11-29T08:15:59.001Z,6.3
2018-11-29T08:17:08.840Z,6.34
2018-11-29T08:18:18.669Z,6.28
2018-11-29T08:19:28.764Z,6.38
2018-11-29T08:20:38.073Z,6.27
2018-11-29T08:21:47.911Z,6.33
2018-11-29T08:22:58.016Z,6.31
2018-11-29T08:24:08.121Z,6.3
2018-11-29T08:25:17.958Z,6.36
2018-11-29T08:26:27.811Z,6.31
2018-11-29T08:27:37.650Z,6.27
2018-11-29T08:28:47.481Z,6.3
2018-11-29T08:29:57.100Z,6.28
2018-11-29T08:31:06.937Z,6.3
2018-11-29T08:32:16.818Z,6.34
2018-11-29T08:33:26.127Z,6.27
2018-11-29T08:34:35.444Z,6.3
2018-11-29T08:35:45.539Z,6.36
2018-11-29T08:36:55.386Z,6.37
2018-11-29T08:38:06.102Z,6.31
2018-11-29T08:39:15.410Z,6.27
2018-11-29T08:40:25.294Z,6.36
2018-11-29T08:41:35.136Z,6.31
2018-11-29T08:42:45.235Z,6.34
2018-11-29T08:43:54.805Z,6.36
2018-11-29T08:45:04.646Z,6.49
2018-11-29T08:46:14.222Z,6.49
2018-11-29T08:47:23.793Z,6.49
2018-11-29T08:48:33.107Z,6.52
2018-11-29T08:49:42.457Z,6.48
2018-11-29T08:50:52.298Z,6.51
2018-11-29T08:52:02.130Z,6.52
2018-11-29T08:53:11.965Z,6.52
2018-11-29T08:54:21.813Z,6.46
2018-11-29T08:55:31.910Z,6.54
2018-11-29T08:56:41.741Z,6.62
2018-11-29T08:57:51.838Z,6.61
2018-11-29T08:59:01.678Z,6.66
2018-11-29T09:00:11.254Z,6.61
2018-11-29T09:01:21.082Z,6.62
2018-11-29T09:02:30.664Z,6.76
2018-11-29T09:03:40.494Z,6.67
2018-11-29T09:04:50.335Z,6.71
2018-11-29T09:05:59.914Z,6.71
2018-11-29T09:07:09.800Z,6.62
2018-11-29T09:08:19.893Z,6.71
2018-11-29T09:09:30.002Z,6.74
2018-11-29T09:10:40.101Z,6.71
2018-11-29T09:11:50.320Z,6.67
2018-11-29T09:12:59.635Z,6.64
2018-11-29T09:14:09.737Z,6.67
2018-11-29T09:15:19.925Z,6.74
2018-11-29T09:16:29.569Z,6.62
2018-11-29T09:17:39.402Z,6.69
2018-11-29T09:18:48.708Z,6.77
2018-11-29T09:19:58.543Z,6.74
2018-11-29T09:21:08.385Z,6.73
2018-11-29T09:22:18.485Z,6.79
2018-11-29T09:23:28.316Z,6.74
2018-11-29T09:24:38.150Z,6.81
2018-11-29T09:25:47.981Z,6.87
2018-11-29T09:26:58.173Z,6.87
2018-11-29T09:28:08.010Z,6.79
2018-11-29T09:29:18.722Z,6.84
2018-11-29T09:30:28.604Z,6.84
2018-11-29T09:31:38.694Z,6.87
2018-11-29T09:32:48.269Z,6.99
2018-11-29T09:33:58.375Z,6.84
2018-11-29T09:35:07.957Z,6.81
2018-11-29T09:36:17.583Z,6.87
2018-11-29T09:37:27.424Z,6.94
2018-11-29T09:38:36.740Z,6.87
2018-11-29T09:39:46.842Z,6.91
2018-11-29T09:40:56.421Z,6.85
2018-11-29T09:42:06.052Z,6.88
2018-11-29T09:43:15.894Z,6.91
2018-11-29T09:44:25.729Z,6.92
2018-11-29T09:45:35.321Z,6.92
2018-11-29T09:46:45.159Z,6.92
2018-11-29T09:47:54.995Z,6.84
2018-11-29T09:49:05.107Z,6.87
2018-11-29T09:50:14.951Z,6.92
2018-11-29T09:51:24.266Z,6.87
2018-11-29T09:52:34.115Z,6.87
2018-11-29T09:53:43.960Z,6.85
2018-11-29T09:54:54.105Z,6.79
2018-11-29T09:56:03.948Z,6.77
2018-11-29T09:57:14.042Z,6.81
2018-11-29T09:58:23.887Z,6.8
2018-11-29T09:59:34.049Z,6.92
2018-11-29T10:00:43.896Z,6.84
2018-11-29T10:01:53.475Z,6.88
2018-11-29T10:03:02.780Z,6.94
2018-11-29T10:04:12.352Z,6.85
2018-11-29T10:05:22.182Z,6.85
2018-11-29T10:06:32.020Z,6.91
2018-11-29T10:07:41.859Z,6.92
2018-11-29T10:08:51.702Z,6.91
2018-11-29T10:10:01.543Z,6.85
2018-11-29T10:11:11.389Z,6.89
2018-11-29T10:12:21.489Z,6.89
2018-11-29T10:13:31.083Z,6.91
2018-11-29T10:14:40.934Z,6.87
2018-11-29T10:15:50.770Z,6.85
2018-11-29T10:17:00.622Z,6.79
2018-11-29T10:18:10.461Z,6.84
2018-11-29T10:19:20.290Z,6.89
2018-11-29T10:20:30.156Z,6.94
2018-11-29T10:21:39.734Z,6.95
2018-11-29T10:22:49.313Z,7.03
2018-11-29T10:23:59.158Z,7.02
2018-11-29T10:25:09.030Z,7.05
2018-11-29T10:26:18.351Z,7.05
2018-11-29T10:27:27.928Z,7.02
2018-11-29T10:28:38.027Z,7.02
2018-11-29T10:29:47.608Z,7.03
2018-11-29T10:30:57.511Z,7.03
2018-11-29T10:32:07.610Z,7.13
2018-11-29T10:33:17.198Z,7.17
2018-11-29T10:34:27.088Z,7.17
2018-11-29T10:35:37.185Z,7.13
2018-11-29T10:36:47.021Z,7.15
2018-11-29T10:37:56.854Z,7.13
2018-11-29T10:39:06.436Z,7.21
2018-11-29T10:40:16.017Z,7.15
2018-11-29T10:41:25.857Z,7.21
2018-11-29T10:42:35.700Z,7.21
2018-11-29T10:43:45.280Z,7.06
2018-11-29T10:44:54.848Z,7.21
2018-11-29T10:46:04.417Z,7.21
2018-11-29T10:47:14.000Z,7.2
2018-11-29T10:48:23.319Z,7.35
2018-11-29T10:49:32.901Z,7.2
2018-11-29T10:50:42.479Z,7.21
2018-11-29T10:51:52.319Z,7.21
2018-11-29T10:53:02.152Z,7.17
2018-11-29T10:54:11.989Z,7.21
2018-11-29T10:55:24.628Z,7.25
2018-11-29T10:56:34.466Z,7.17
2018-11-29T10:57:43.780Z,7.31
2018-11-29T10:58:53.359Z,7.31
2018-11-29T11:00:03.363Z,7.28
2018-11-29T11:01:13.202Z,7.31
2018-11-29T11:02:22.776Z,7.32
2018-11-29T11:03:32.619Z,7.32
2018-11-29T11:04:42.198Z,7.37
2018-11-29T11:05:52.030Z,7.3
2018-11-29T11:07:01.681Z,7.32
2018-11-29T11:08:13.525Z,7.3
2018-11-29T11:09:23.812Z,7.32
2018-11-29T11:10:33.646Z,7.37
2018-11-29T11:11:43.494Z,7.3
2018-11-29T11:12:53.359Z,7.31
2018-11-29T11:14:02.944Z,7.35
2018-11-29T11:15:13.041Z,7.35
2018-11-29T11:16:23.138Z,7.42
2018-11-29T11:17:32.974Z,7.43
2018-11-29T11:18:43.072Z,7.42
2018-11-29T11:19:52.646Z,7.45
2018-11-29T11:21:02.741Z,7.4
2018-11-29T11:22:12.581Z,7.4
2018-11-29T11:23:22.159Z,7.5
2018-11-29T11:24:31.999Z,7.45
2018-11-29T11:25:41.574Z,7.43
2018-11-29T11:26:51.422Z,7.49
2018-11-29T11:28:01.261Z,7.49
2018-11-29T11:29:11.096Z,7.48
2018-11-29T11:30:20.775Z,7.5
2018-11-29T11:31:37.290Z,7.57
2018-11-29T11:32:47.180Z,7.55
2018-11-29T11:33:57.032Z,7.53
2018-11-29T11:35:07.143Z,7.5
2018-11-29T11:36:17.237Z,7.52
2018-11-29T11:37:26.818Z,7.53
2018-11-29T11:38:36.149Z,7.49
2018-11-29T11:39:46.296Z,7.58
2018-11-29T11:40:56.133Z,7.57
2018-11-29T11:42:05.707Z,7.58
2018-11-29T11:43:15.801Z,7.6
2018-11-29T11:44:25.413Z,7.61
2018-11-29T11:45:35.518Z,7.63
2018-11-29T11:46:44.831Z,7.67
2018-11-29T11:47:54.407Z,7.63
2018-11-29T11:49:10.670Z,7.69
2018-11-29T11:50:20.783Z,7.69
2018-11-29T11:51:30.103Z,7.68
2018-11-29T11:52:39.942Z,7.71
2018-11-29T11:53:49.836Z,7.64
2018-11-29T11:54:59.826Z,7.67
2018-11-29T11:56:09.668Z,7.67
2018-11-29T11:57:19.848Z,7.61
2018-11-29T11:58:29.686Z,7.63
2018-11-29T11:59:39.263Z,7.64
2018-11-29T12:00:48.583Z,7.71
2018-11-29T12:01:58.416Z,7.86
2018-11-29T12:03:08.089Z,7.74
2018-11-29T12:04:17.960Z,7.67
2018-11-29T12:05:28.054Z,7.64
2018-11-29T12:06:38.148Z,7.75
2018-11-29T12:07:48.046Z,7.83
2018-11-29T12:08:58.140Z,7.71
2018-11-29T12:10:07.713Z,7.82
2018-11-29T12:11:17.073Z,7.75
2018-11-29T12:12:26.910Z,7.71
2018-11-29T12:13:37.017Z,7.64
2018-11-29T12:14:46.854Z,7.72
2018-11-29T12:15:56.702Z,7.67
2018-11-29T12:17:06.596Z,7.69
2018-11-29T12:18:16.167Z,7.64
2018-11-29T12:19:26.064Z,7.72
2018-11-29T12:20:35.954Z,7.67
2018-11-29T12:21:45.024Z,7.77
2018-11-29T12:22:55.119Z,7.71
2018-11-29T12:24:05.221Z,7.75
2018-11-29T12:25:14.798Z,7.8
2018-11-29T12:26:24.905Z,7.75
2018-11-29T12:27:34.741Z,7.75
2018-11-29T12:28:44.574Z,7.71
2018-11-29T12:29:54.417Z,7.68
2018-11-29T12:31:04.517Z,7.75
2018-11-29T12:32:13.831Z,7.69
2018-11-29T12:33:23.936Z,7.68
2018-11-29T12:34:33.778Z,7.64
2018-11-29T12:35:42.839Z,7.63
2018-11-29T12:36:52.687Z,7.71
2018-11-29T12:38:02.531Z,7.68
2018-11-29T12:39:12.630Z,7.71
2018-11-29T12:40:22.203Z,7.61
2018-11-29T12:41:32.037Z,7.77
2018-11-29T12:42:41.611Z,7.69
2018-11-29T12:43:51.449Z,7.69
2018-11-29T12:45:01.548Z,7.71
2018-11-29T12:46:11.130Z,7.75
2018-11-29T12:47:20.709Z,7.63
2018-11-29T12:48:30.029Z,7.67
2018-11-29T12:49:39.861Z,7.68
2018-11-29T12:50:49.696Z,7.69
2018-11-29T12:51:59.330Z,7.67
2018-11-29T12:53:09.501Z,7.68
2018-11-29T12:54:19.343Z,7.53
2018-11-29T12:55:29.448Z,7.74
2018-11-29T12:56:38.767Z,7.67
2018-11-29T12:58:04.280Z,7.67
2018-11-29T12:59:14.874Z,7.67
2018-11-29T13:00:24.978Z,7.68
2018-11-29T13:01:34.554Z,7.64
2018-11-29T13:02:45.706Z,7.63
2018-11-29T13:03:55.815Z,7.67
2018-11-29T13:05:05.657Z,7.69
2018-11-29T13:06:15.763Z,7.71
2018-11-29T13:07:25.603Z,7.72
2018-11-29T13:08:35.436Z,7.64
2018-11-29T13:09:45.291Z,7.75
2018-11-29T13:10:55.133Z,7.79
2018-11-29T13:12:05.269Z,7.83
2018-11-29T13:13:14.892Z,7.82
2018-11-29T13:14:24.891Z,7.82
2018-11-29T13:15:34.767Z,7.85
2018-11-29T13:16:44.903Z,7.85
2018-11-29T13:17:55.014Z,7.89
2018-11-29T13:19:04.682Z,7.93
2018-11-29T13:20:14.256Z,7.89
2018-11-29T13:21:24.117Z,7.82
2018-11-29T13:22:33.769Z,7.89
2018-11-29T13:23:43.617Z,7.89
2018-11-29T13:24:53.464Z,7.85
2018-11-29T13:26:03.302Z,7.89
2018-11-29T13:27:13.415Z,7.87
2018-11-29T13:28:23.516Z,7.89
2018-11-29T13:29:33.389Z,7.92
2018-11-29T13:30:43.283Z,7.93
2018-11-29T13:31:52.920Z,7.79
2018-11-29T13:33:02.760Z,7.93
2018-11-29T13:34:12.863Z,7.9
2018-11-29T13:35:22.767Z,7.86
2018-11-29T13:36:32.614Z,7.9
2018-11-29T13:37:42.719Z,7.92
2018-11-29T13:38:52.079Z,7.89
2018-11-29T13:40:02.105Z,7.89
2018-11-29T13:41:12.217Z,7.86
2018-11-29T13:42:22.073Z,7.86
2018-11-29T13:43:31.915Z,7.86
2018-11-29T13:44:42.025Z,7.83
2018-11-29T13:45:52.188Z,7.83
2018-11-29T13:47:02.372Z,7.8
2018-11-29T13:48:11.998Z,7.82
2018-11-29T13:49:21.333Z,7.74
2018-11-29T13:50:30.971Z,7.69
2018-11-29T13:51:40.644Z,7.69
2018-11-29T13:52:50.750Z,7.69
2018-11-29T13:54:01.176Z,7.64
2018-11-29T13:55:11.336Z,7.64
2018-11-29T13:56:21.149Z,7.72
2018-11-29T13:57:31.301Z,7.71
2018-11-29T13:58:40.936Z,7.61
2018-11-29T13:59:50.773Z,7.64
2018-11-29T14:01:00.352Z,7.71
2018-11-29T14:02:10.293Z,7.69
2018-11-29T14:03:20.264Z,7.83
2018-11-29T14:04:30.109Z,7.64
2018-11-29T14:05:39.950Z,7.68
2018-11-29T14:06:49.533Z,7.69
2018-11-29T14:07:59.161Z,7.58
2018-11-29T14:09:08.996Z,7.71
2018-11-29T14:10:18.635Z,7.64
2018-11-29T14:11:28.476Z,7.69
2018-11-29T14:12:38.572Z,7.68
2018-11-29T14:13:48.410Z,7.71
2018-11-29T14:14:57.985Z,7.71
2018-11-29T14:16:07.819Z,7.63
2018-11-29T14:17:17.690Z,7.55
2018-11-29T14:18:27.590Z,7.57
2018-11-29T14:19:37.691Z,7.57
2018-11-29T14:20:47.270Z,7.57
2018-11-29T14:21:57.174Z,7.55
2018-11-29T14:23:07.094Z,7.49
2018-11-29T14:24:16.691Z,7.52
2018-11-29T14:25:26.577Z,7.61
2018-11-29T14:26:36.416Z,7.58
2018-11-29T14:27:46.049Z,7.6
2018-11-29T14:28:55.629Z,7.64
2018-11-29T14:30:04.825Z,7.63
2018-11-29T14:31:14.662Z,7.58
2018-11-29T14:32:24.756Z,7.61
2018-11-29T14:33:34.757Z,7.67
2018-11-29T14:34:44.338Z,7.6
2018-11-29T14:35:59.382Z,7.58
2018-11-29T14:37:09.500Z,7.64
2018-11-29T14:38:18.828Z,7.63
2018-11-29T14:39:28.496Z,7.55
2018-11-29T14:40:38.067Z,7.55
2018-11-29T14:41:47.388Z,7.61
2018-11-29T14:42:57.026Z,7.6
2018-11-29T14:44:07.134Z,7.58
2018-11-29T14:45:16.983Z,7.6
2018-11-29T14:46:26.298Z,7.53
2018-11-29T14:47:36.442Z,7.6
2018-11-29T14:48:46.279Z,7.57
2018-11-29T14:49:56.110Z,7.63
2018-11-29T14:51:07.518Z,7.63
2018-11-29T14:52:17.363Z,7.68
2018-11-29T14:53:26.682Z,7.69
2018-11-29T14:54:36.521Z,7.71
2018-11-29T14:55:46.205Z,7.75
2018-11-29T14:56:56.411Z,7.74
2018-11-29T14:58:06.254Z,7.74
2018-11-29T14:59:16.098Z,7.69
2018-11-29T15:00:26.195Z,7.67
2018-11-29T15:01:36.297Z,7.68
2018-11-29T15:02:45.353Z,7.83
2018-11-29T15:03:54.934Z,7.72
2018-11-29T15:05:07.667Z,7.85
2018-11-29T15:06:17.757Z,7.79
2018-11-29T15:07:27.851Z,7.79
2018-11-29T15:08:37.953Z,7.75
2018-11-29T15:09:47.793Z,7.82
2018-11-29T15:10:57.627Z,7.79
2018-11-29T15:12:07.516Z,7.75
2018-11-29T15:13:16.834Z,7.75
2018-11-29T15:14:26.932Z,7.8
2018-11-29T15:15:36.509Z,7.72
2018-11-29T15:16:46.087Z,7.74
2018-11-29T15:17:56.201Z,7.75
2018-11-29T15:19:05.522Z,7.71
2018-11-29T15:20:14.841Z,7.68
2018-11-29T15:21:24.937Z,7.68
2018-11-29T15:22:35.033Z,7.63
2018-11-29T15:23:44.872Z,7.58
2018-11-29T15:24:54.444Z,7.58
2018-11-29T15:26:04.015Z,7.58
2018-11-29T15:27:13.854Z,7.6
2018-11-29T15:28:23.702Z,7.57
2018-11-29T15:29:33.804Z,7.61
2018-11-29T15:30:43.643Z,7.53
2018-11-29T15:31:53.491Z,7.58
2018-11-29T15:33:02.835Z,7.58